sensor_id;sensor_type;location;lat;lon;timestamp;temperature;humidity
37380;DHT22;23252;-33.992;18.480;2023-03-14T00:02:12;18.80;99.90
37380;DHT22;23252;-33.992;18.480;2023-03-14T00:04:38;18.80;99.90
37380;DHT22;23252;-33.992;18.480;2023-03-14T00:07:05;18.80;99.90
37380;DHT22;23252;-33.992;18.480;2023-03-14T00:09:31;18.80;99.90
37380;DHT22;23252;-33.992;18.480;2023-03-14T00:11:58;18.80;99.90
37380;DHT22;23252;-33.992;18.480;2023-03-14T00:14:24;18.80;99.90
37380;DHT22;23252;-33.992;18.480;2023-03-14T00:16:51;18.80;99.90
37380;DHT22;23252;-33.992;18.480;2023-03-14T00:19:17;18.80;99.90
37380;DHT22;23252;-33.992;18.480;2023-03-14T00:21:44;18.80;99.90
37380;DHT22;23252;-33.992;18.480;2023-03-14T00:24:10;18.80;99.90
37380;DHT22;23252;-33.992;18.480;2023-03-14T00:26:37;18.70;99.90
37380;DHT22;23252;-33.992;18.480;2023-03-14T00:29:03;18.80;99.90
37380;DHT22;23252;-33.992;18.480;2023-03-14T00:31:30;18.80;99.90
37380;DHT22;23252;-33.992;18.480;2023-03-14T00:33:57;18.70;99.90
37380;DHT22;23252;-33.992;18.480;2023-03-14T00:36:23;18.70;99.90
37380;DHT22;23252;-33.992;18.480;2023-03-14T00:38:51;18.70;99.90
37380;DHT22;23252;-33.992;18.480;2023-03-14T00:41:20;18.70;99.90
37380;DHT22;23252;-33.992;18.480;2023-03-14T00:43:48;18.80;99.90
37380;DHT22;23252;-33.992;18.480;2023-03-14T00:46:15;18.70;99.90
37380;DHT22;23252;-33.992;18.480;2023-03-14T00:48:43;18.70;99.90
37380;DHT22;23252;-33.992;18.480;2023-03-14T00:51:10;18.70;99.90
37380;DHT22;23252;-33.992;18.480;2023-03-14T00:53:38;18.70;99.90
37380;DHT22;23252;-33.992;18.480;2023-03-14T00:56:08;18.70;99.90
37380;DHT22;23252;-33.992;18.480;2023-03-14T00:58:34;18.70;99.90
37380;DHT22;23252;-33.992;18.480;2023-03-14T01:01:17;18.60;99.90
37380;DHT22;23252;-33.992;18.480;2023-03-14T01:03:45;18.60;99.90
37380;DHT22;23252;-33.992;18.480;2023-03-14T01:06:15;18.60;99.90
37380;DHT22;23252;-33.992;18.480;2023-03-14T01:08:42;18.60;99.90
37380;DHT22;23252;-33.992;18.480;2023-03-14T01:11:09;18.60;99.90
37380;DHT22;23252;-33.992;18.480;2023-03-14T01:13:36;18.60;99.90
37380;DHT22;23252;-33.992;18.480;2023-03-14T01:16:07;18.60;99.90
37380;DHT22;23252;-33.992;18.480;2023-03-14T01:18:35;18.60;99.90
37380;DHT22;23252;-33.992;18.480;2023-03-14T01:21:21;18.60;99.90
37380;DHT22;23252;-33.992;18.480;2023-03-14T01:23:48;18.60;99.90
37380;DHT22;23252;-33.992;18.480;2023-03-14T01:26:16;18.60;99.90
37380;DHT22;23252;-33.992;18.480;2023-03-14T01:28:45;18.60;99.90
37380;DHT22;23252;-33.992;18.480;2023-03-14T01:31:12;18.60;99.90
37380;DHT22;23252;-33.992;18.480;2023-03-14T01:33:39;18.60;99.90
37380;DHT22;23252;-33.992;18.480;2023-03-14T01:36:07;18.60;99.90
37380;DHT22;23252;-33.992;18.480;2023-03-14T01:38:36;18.60;99.90
37380;DHT22;23252;-33.992;18.480;2023-03-14T01:41:03;18.60;99.90
37380;DHT22;23252;-33.992;18.480;2023-03-14T01:43:30;18.60;99.90
37380;DHT22;23252;-33.992;18.480;2023-03-14T01:48:39;18.60;99.90
37380;DHT22;23252;-33.992;18.480;2023-03-14T01:51:09;18.60;99.90
37380;DHT22;23252;-33.992;18.480;2023-03-14T01:53:38;18.60;99.90
37380;DHT22;23252;-33.992;18.480;2023-03-14T01:56:06;18.60;99.90
37380;DHT22;23252;-33.992;18.480;2023-03-14T01:58:33;18.60;99.90
37380;DHT22;23252;-33.992;18.480;2023-03-14T02:01:03;18.60;99.90
37380;DHT22;23252;-33.992;18.480;2023-03-14T02:03:31;18.60;99.90
37380;DHT22;23252;-33.992;18.480;2023-03-14T02:06:05;18.70;99.90
37380;DHT22;23252;-33.992;18.480;2023-03-14T02:08:33;18.70;99.90
37380;DHT22;23252;-33.992;18.480;2023-03-14T02:11:01;18.60;99.90
37380;DHT22;23252;-33.992;18.480;2023-03-14T02:13:28;18.70;99.90
37380;DHT22;23252;-33.992;18.480;2023-03-14T02:15:55;18.60;99.90
37380;DHT22;23252;-33.992;18.480;2023-03-14T02:18:21;18.60;99.90
37380;DHT22;23252;-33.992;18.480;2023-03-14T02:26:40;18.60;99.90
37380;DHT22;23252;-33.992;18.480;2023-03-14T02:29:08;18.60;99.90
37380;DHT22;23252;-33.992;18.480;2023-03-14T02:31:34;18.60;99.90
37380;DHT22;23252;-33.992;18.480;2023-03-14T02:34:02;18.60;99.90
37380;DHT22;23252;-33.992;18.480;2023-03-14T02:36:28;18.50;99.90
37380;DHT22;23252;-33.992;18.480;2023-03-14T02:39:18;18.60;99.90
37380;DHT22;23252;-33.992;18.480;2023-03-14T02:41:46;18.60;99.90
37380;DHT22;23252;-33.992;18.480;2023-03-14T02:44:17;18.60;99.90
37380;DHT22;23252;-33.992;18.480;2023-03-14T02:46:46;18.60;99.90
37380;DHT22;23252;-33.992;18.480;2023-03-14T02:49:14;18.60;99.90
37380;DHT22;23252;-33.992;18.480;2023-03-14T02:51:42;18.60;99.90
37380;DHT22;23252;-33.992;18.480;2023-03-14T02:54:09;18.60;99.90
37380;DHT22;23252;-33.992;18.480;2023-03-14T02:56:36;18.70;99.90
37380;DHT22;23252;-33.992;18.480;2023-03-14T02:59:04;18.70;99.90
37380;DHT22;23252;-33.992;18.480;2023-03-14T03:01:31;18.70;99.90
37380;DHT22;23252;-33.992;18.480;2023-03-14T03:03:59;18.70;99.90
37380;DHT22;23252;-33.992;18.480;2023-03-14T03:06:26;18.60;99.90
37380;DHT22;23252;-33.992;18.480;2023-03-14T03:08:52;18.60;99.90
37380;DHT22;23252;-33.992;18.480;2023-03-14T03:11:19;18.60;99.90
37380;DHT22;23252;-33.992;18.480;2023-03-14T03:13:46;18.60;99.90
37380;DHT22;23252;-33.992;18.480;2023-03-14T03:16:12;18.70;99.90
37380;DHT22;23252;-33.992;18.480;2023-03-14T03:18:42;18.70;99.90
37380;DHT22;23252;-33.992;18.480;2023-03-14T03:21:08;18.60;99.90
37380;DHT22;23252;-33.992;18.480;2023-03-14T03:23:35;18.70;99.90
37380;DHT22;23252;-33.992;18.480;2023-03-14T03:26:02;18.70;99.90
37380;DHT22;23252;-33.992;18.480;2023-03-14T03:28:29;18.70;99.90
37380;DHT22;23252;-33.992;18.480;2023-03-14T03:30:55;18.70;99.90
37380;DHT22;23252;-33.992;18.480;2023-03-14T03:33:22;18.70;99.90
37380;DHT22;23252;-33.992;18.480;2023-03-14T03:35:50;18.70;99.90
37380;DHT22;23252;-33.992;18.480;2023-03-14T03:38:18;18.70;99.90
37380;DHT22;23252;-33.992;18.480;2023-03-14T03:40:46;18.80;99.90
37380;DHT22;23252;-33.992;18.480;2023-03-14T03:43:12;18.80;99.90
37380;DHT22;23252;-33.992;18.480;2023-03-14T03:45:39;18.80;99.90
37380;DHT22;23252;-33.992;18.480;2023-03-14T03:48:06;18.80;99.90
37380;DHT22;23252;-33.992;18.480;2023-03-14T03:50:32;18.80;99.90
37380;DHT22;23252;-33.992;18.480;2023-03-14T03:52:59;18.80;99.90
37380;DHT22;23252;-33.992;18.480;2023-03-14T03:55:26;18.80;99.90
37380;DHT22;23252;-33.992;18.480;2023-03-14T03:57:54;18.80;99.90
37380;DHT22;23252;-33.992;18.480;2023-03-14T04:00:20;18.80;99.90
37380;DHT22;23252;-33.992;18.480;2023-03-14T04:02:47;18.80;99.90
37380;DHT22;23252;-33.992;18.480;2023-03-14T04:05:13;18.80;99.90
37380;DHT22;23252;-33.992;18.480;2023-03-14T06:14:50;19.00;99.90
37380;DHT22;23252;-33.992;18.480;2023-03-14T06:17:17;19.40;99.90
37380;DHT22;23252;-33.992;18.480;2023-03-14T06:19:43;19.40;99.90
37380;DHT22;23252;-33.992;18.480;2023-03-14T06:22:09;19.40;99.90
37380;DHT22;23252;-33.992;18.480;2023-03-14T06:24:42;19.50;99.90
37380;DHT22;23252;-33.992;18.480;2023-03-14T06:27:08;19.60;99.90
37380;DHT22;23252;-33.992;18.480;2023-03-14T06:29:35;19.50;99.90
37380;DHT22;23252;-33.992;18.480;2023-03-14T06:32:01;19.60;99.90
37380;DHT22;23252;-33.992;18.480;2023-03-14T06:34:28;19.60;99.90
37380;DHT22;23252;-33.992;18.480;2023-03-14T06:36:55;19.60;99.90
37380;DHT22;23252;-33.992;18.480;2023-03-14T06:39:21;19.70;99.90
37380;DHT22;23252;-33.992;18.480;2023-03-14T06:41:48;19.80;99.90
37380;DHT22;23252;-33.992;18.480;2023-03-14T06:44:14;19.90;99.90
37380;DHT22;23252;-33.992;18.480;2023-03-14T06:46:40;19.90;99.90
37380;DHT22;23252;-33.992;18.480;2023-03-14T06:49:07;19.90;99.90
37380;DHT22;23252;-33.992;18.480;2023-03-14T06:51:33;20.00;99.90
37380;DHT22;23252;-33.992;18.480;2023-03-14T06:54:00;20.00;99.90
37380;DHT22;23252;-33.992;18.480;2023-03-14T06:56:26;20.10;99.90
37380;DHT22;23252;-33.992;18.480;2023-03-14T06:58:53;20.10;99.90
37380;DHT22;23252;-33.992;18.480;2023-03-14T07:01:25;20.10;99.90
37380;DHT22;23252;-33.992;18.480;2023-03-14T07:03:52;20.20;99.90
37380;DHT22;23252;-33.992;18.480;2023-03-14T07:06:18;20.10;99.90
37380;DHT22;23252;-33.992;18.480;2023-03-14T07:08:45;20.20;99.90
37380;DHT22;23252;-33.992;18.480;2023-03-14T07:11:12;20.20;99.90
37380;DHT22;23252;-33.992;18.480;2023-03-14T07:13:39;20.30;99.90
37380;DHT22;23252;-33.992;18.480;2023-03-14T07:16:06;20.30;99.90
37380;DHT22;23252;-33.992;18.480;2023-03-14T07:18:33;20.40;99.90
37380;DHT22;23252;-33.992;18.480;2023-03-14T07:21:02;20.40;99.90
37380;DHT22;23252;-33.992;18.480;2023-03-14T07:23:28;20.40;99.90
37380;DHT22;23252;-33.992;18.480;2023-03-14T07:25:56;20.40;99.90
37380;DHT22;23252;-33.992;18.480;2023-03-14T07:28:23;20.50;99.90
37380;DHT22;23252;-33.992;18.480;2023-03-14T07:30:49;20.60;99.90
37380;DHT22;23252;-33.992;18.480;2023-03-14T07:33:16;20.60;99.90
37380;DHT22;23252;-33.992;18.480;2023-03-14T07:35:42;20.80;99.90
37380;DHT22;23252;-33.992;18.480;2023-03-14T07:38:09;20.80;99.90
37380;DHT22;23252;-33.992;18.480;2023-03-14T07:40:35;20.90;99.90
37380;DHT22;23252;-33.992;18.480;2023-03-14T07:43:02;21.00;99.90
37380;DHT22;23252;-33.992;18.480;2023-03-14T07:45:28;21.00;99.90
37380;DHT22;23252;-33.992;18.480;2023-03-14T07:47:55;21.00;99.90
37380;DHT22;23252;-33.992;18.480;2023-03-14T07:50:24;21.00;99.90
37380;DHT22;23252;-33.992;18.480;2023-03-14T07:52:51;21.00;99.90
37380;DHT22;23252;-33.992;18.480;2023-03-14T07:55:18;20.90;99.90
37380;DHT22;23252;-33.992;18.480;2023-03-14T07:57:44;20.90;99.90
37380;DHT22;23252;-33.992;18.480;2023-03-14T08:00:11;20.90;99.90
37380;DHT22;23252;-33.992;18.480;2023-03-14T08:02:40;21.00;99.90
37380;DHT22;23252;-33.992;18.480;2023-03-14T08:05:07;21.00;99.90
37380;DHT22;23252;-33.992;18.480;2023-03-14T08:07:33;21.10;99.90
37380;DHT22;23252;-33.992;18.480;2023-03-14T08:10:00;21.10;99.90
37380;DHT22;23252;-33.992;18.480;2023-03-14T08:12:26;21.10;99.90
37380;DHT22;23252;-33.992;18.480;2023-03-14T08:14:53;21.20;99.90
37380;DHT22;23252;-33.992;18.480;2023-03-14T08:17:19;21.30;99.90
37380;DHT22;23252;-33.992;18.480;2023-03-14T08:19:46;21.30;99.90
37380;DHT22;23252;-33.992;18.480;2023-03-14T08:22:13;21.40;99.90
37380;DHT22;23252;-33.992;18.480;2023-03-14T08:24:39;21.40;99.90
37380;DHT22;23252;-33.992;18.480;2023-03-14T08:27:07;21.40;99.90
37380;DHT22;23252;-33.992;18.480;2023-03-14T08:29:33;21.40;99.90
37380;DHT22;23252;-33.992;18.480;2023-03-14T08:32:00;21.50;99.90
37380;DHT22;23252;-33.992;18.480;2023-03-14T08:34:26;21.50;99.90
37380;DHT22;23252;-33.992;18.480;2023-03-14T08:36:53;21.50;99.90
37380;DHT22;23252;-33.992;18.480;2023-03-14T08:39:21;21.60;99.90
37380;DHT22;23252;-33.992;18.480;2023-03-14T08:41:49;21.60;99.90
37380;DHT22;23252;-33.992;18.480;2023-03-14T08:44:16;21.60;99.90
37380;DHT22;23252;-33.992;18.480;2023-03-14T08:46:43;21.70;99.90
37380;DHT22;23252;-33.992;18.480;2023-03-14T08:49:09;21.70;99.90
37380;DHT22;23252;-33.992;18.480;2023-03-14T08:51:36;21.80;99.90
37380;DHT22;23252;-33.992;18.480;2023-03-14T08:54:02;21.80;99.90
37380;DHT22;23252;-33.992;18.480;2023-03-14T08:56:29;21.80;99.90
37380;DHT22;23252;-33.992;18.480;2023-03-14T08:58:56;21.90;99.90
37380;DHT22;23252;-33.992;18.480;2023-03-14T09:01:22;21.90;99.90
37380;DHT22;23252;-33.992;18.480;2023-03-14T09:03:51;22.00;99.90
37380;DHT22;23252;-33.992;18.480;2023-03-14T09:06:17;21.90;99.90
37380;DHT22;23252;-33.992;18.480;2023-03-14T09:08:44;21.90;99.90
37380;DHT22;23252;-33.992;18.480;2023-03-14T09:11:12;21.90;99.90
37380;DHT22;23252;-33.992;18.480;2023-03-14T09:13:38;21.90;99.90
37380;DHT22;23252;-33.992;18.480;2023-03-14T09:16:06;22.00;99.90
37380;DHT22;23252;-33.992;18.480;2023-03-14T09:20:48;22.10;99.90
37380;DHT22;23252;-33.992;18.480;2023-03-14T09:23:15;22.20;99.90
37380;DHT22;23252;-33.992;18.480;2023-03-14T09:25:42;22.20;99.90
37380;DHT22;23252;-33.992;18.480;2023-03-14T09:28:09;22.20;99.90
37380;DHT22;23252;-33.992;18.480;2023-03-14T09:30:35;22.30;99.90
37380;DHT22;23252;-33.992;18.480;2023-03-14T09:33:01;22.30;99.90
37380;DHT22;23252;-33.992;18.480;2023-03-14T09:35:28;22.20;99.90
37380;DHT22;23252;-33.992;18.480;2023-03-14T09:37:54;22.20;99.90
37380;DHT22;23252;-33.992;18.480;2023-03-14T09:40:21;22.30;99.90
37380;DHT22;23252;-33.992;18.480;2023-03-14T09:42:54;22.30;99.90
37380;DHT22;23252;-33.992;18.480;2023-03-14T09:45:36;22.40;99.90
37380;DHT22;23252;-33.992;18.480;2023-03-14T09:48:04;22.60;99.90
37380;DHT22;23252;-33.992;18.480;2023-03-14T09:50:38;22.70;99.90
37380;DHT22;23252;-33.992;18.480;2023-03-14T09:53:15;22.80;99.90
37380;DHT22;23252;-33.992;18.480;2023-03-14T09:55:43;22.80;99.90
37380;DHT22;23252;-33.992;18.480;2023-03-14T09:58:17;23.00;99.90
37380;DHT22;23252;-33.992;18.480;2023-03-14T10:00:47;23.00;99.90
37380;DHT22;23252;-33.992;18.480;2023-03-14T10:03:34;23.10;99.90
37380;DHT22;23252;-33.992;18.480;2023-03-14T10:06:01;23.10;99.90
37380;DHT22;23252;-33.992;18.480;2023-03-14T10:08:28;23.20;99.90
37380;DHT22;23252;-33.992;18.480;2023-03-14T10:10:55;23.30;99.90
37380;DHT22;23252;-33.992;18.480;2023-03-14T10:13:24;23.30;99.90
37380;DHT22;23252;-33.992;18.480;2023-03-14T10:15:59;23.40;99.90
37380;DHT22;23252;-33.992;18.480;2023-03-14T10:18:30;23.40;99.90
37380;DHT22;23252;-33.992;18.480;2023-03-14T10:21:29;23.50;99.90
37380;DHT22;23252;-33.992;18.480;2023-03-14T10:23:54;23.60;99.90
37380;DHT22;23252;-33.992;18.480;2023-03-14T10:26:26;23.60;99.90
37380;DHT22;23252;-33.992;18.480;2023-03-14T10:29:02;23.70;99.90
37380;DHT22;23252;-33.992;18.480;2023-03-14T10:31:57;23.80;99.90
37380;DHT22;23252;-33.992;18.480;2023-03-14T10:34:36;23.80;99.90
37380;DHT22;23252;-33.992;18.480;2023-03-14T10:37:18;23.80;99.90
37380;DHT22;23252;-33.992;18.480;2023-03-14T10:39:55;23.90;99.90
37380;DHT22;23252;-33.992;18.480;2023-03-14T10:42:29;24.00;99.90
37380;DHT22;23252;-33.992;18.480;2023-03-14T10:45:32;24.00;99.90
37380;DHT22;23252;-33.992;18.480;2023-03-14T10:48:43;24.10;99.90
37380;DHT22;23252;-33.992;18.480;2023-03-14T10:51:25;24.20;99.90
37380;DHT22;23252;-33.992;18.480;2023-03-14T10:56:26;24.00;99.90
37380;DHT22;23252;-33.992;18.480;2023-03-14T10:59:03;24.00;99.90
37380;DHT22;23252;-33.992;18.480;2023-03-14T11:01:36;23.90;99.90
37380;DHT22;23252;-33.992;18.480;2023-03-14T11:06:51;24.20;99.90
37380;DHT22;23252;-33.992;18.480;2023-03-14T11:09:25;24.10;99.90
37380;DHT22;23252;-33.992;18.480;2023-03-14T11:11:56;24.00;99.90
37380;DHT22;23252;-33.992;18.480;2023-03-14T11:17:19;23.90;99.90
37380;DHT22;23252;-33.992;18.480;2023-03-14T11:22:59;24.10;99.90
37380;DHT22;23252;-33.992;18.480;2023-03-14T11:25:39;24.00;99.90
37380;DHT22;23252;-33.992;18.480;2023-03-14T11:28:40;24.00;99.90
37380;DHT22;23252;-33.992;18.480;2023-03-14T11:31:41;24.10;99.90
37380;DHT22;23252;-33.992;18.480;2023-03-14T11:37:23;24.30;99.90
37380;DHT22;23252;-33.992;18.480;2023-03-14T11:40:11;24.40;99.90
37380;DHT22;23252;-33.992;18.480;2023-03-14T11:42:42;24.40;99.90
37380;DHT22;23252;-33.992;18.480;2023-03-14T11:45:25;24.50;99.90
37380;DHT22;23252;-33.992;18.480;2023-03-14T11:48:15;24.60;99.90
37380;DHT22;23252;-33.992;18.480;2023-03-14T11:50:44;24.70;99.90
37380;DHT22;23252;-33.992;18.480;2023-03-14T11:53:36;24.90;99.90
37380;DHT22;23252;-33.992;18.480;2023-03-14T11:56:13;24.80;99.90
37380;DHT22;23252;-33.992;18.480;2023-03-14T11:59:03;25.00;99.90
37380;DHT22;23252;-33.992;18.480;2023-03-14T12:07:35;24.80;99.90
37380;DHT22;23252;-33.992;18.480;2023-03-14T12:10:05;24.80;99.90
37380;DHT22;23252;-33.992;18.480;2023-03-14T12:12:32;24.90;99.90
37380;DHT22;23252;-33.992;18.480;2023-03-14T12:15:01;24.90;99.90
37380;DHT22;23252;-33.992;18.480;2023-03-14T12:17:41;24.90;99.90
37380;DHT22;23252;-33.992;18.480;2023-03-14T12:20:19;25.20;99.90
37380;DHT22;23252;-33.992;18.480;2023-03-14T12:22:52;25.30;99.90
37380;DHT22;23252;-33.992;18.480;2023-03-14T12:25:22;25.50;99.90
37380;DHT22;23252;-33.992;18.480;2023-03-14T12:28:03;25.90;99.90
37380;DHT22;23252;-33.992;18.480;2023-03-14T12:30:41;26.10;99.90
37380;DHT22;23252;-33.992;18.480;2023-03-14T12:35:45;26.10;99.90
37380;DHT22;23252;-33.992;18.480;2023-03-14T12:38:46;26.30;99.90
37380;DHT22;23252;-33.992;18.480;2023-03-14T12:41:35;26.10;99.90
37380;DHT22;23252;-33.992;18.480;2023-03-14T12:47:00;26.00;99.90
37380;DHT22;23252;-33.992;18.480;2023-03-14T12:49:31;25.80;99.90
37380;DHT22;23252;-33.992;18.480;2023-03-14T12:52:01;25.30;99.90
37380;DHT22;23252;-33.992;18.480;2023-03-14T13:02:43;24.90;99.90
37380;DHT22;23252;-33.992;18.480;2023-03-14T13:05:23;24.50;99.90
37380;DHT22;23252;-33.992;18.480;2023-03-14T13:10:24;24.10;99.90
37380;DHT22;23252;-33.992;18.480;2023-03-14T13:13:21;24.10;99.90
37380;DHT22;23252;-33.992;18.480;2023-03-14T13:15:49;23.80;99.90
37380;DHT22;23252;-33.992;18.480;2023-03-14T13:18:40;23.60;99.90
37380;DHT22;23252;-33.992;18.480;2023-03-14T13:21:18;23.50;99.90
37380;DHT22;23252;-33.992;18.480;2023-03-14T13:24:00;23.40;99.90
37380;DHT22;23252;-33.992;18.480;2023-03-14T13:26:42;23.20;99.90
37380;DHT22;23252;-33.992;18.480;2023-03-14T13:31:36;23.00;99.90
37380;DHT22;23252;-33.992;18.480;2023-03-14T13:34:09;22.90;99.90
37380;DHT22;23252;-33.992;18.480;2023-03-14T13:36:36;22.90;99.90
37380;DHT22;23252;-33.992;18.480;2023-03-14T13:39:06;22.80;99.90
37380;DHT22;23252;-33.992;18.480;2023-03-14T13:41:38;22.70;99.90
37380;DHT22;23252;-33.992;18.480;2023-03-14T13:44:07;22.70;99.90
37380;DHT22;23252;-33.992;18.480;2023-03-14T13:46:36;22.70;99.90
37380;DHT22;23252;-33.992;18.480;2023-03-14T13:49:05;22.70;99.90
37380;DHT22;23252;-33.992;18.480;2023-03-14T13:51:33;22.60;99.90
37380;DHT22;23252;-33.992;18.480;2023-03-14T13:53:59;22.60;99.90
37380;DHT22;23252;-33.992;18.480;2023-03-14T13:56:29;22.60;99.90
37380;DHT22;23252;-33.992;18.480;2023-03-14T13:58:56;22.60;99.90
37380;DHT22;23252;-33.992;18.480;2023-03-14T14:01:32;22.50;99.90
37380;DHT22;23252;-33.992;18.480;2023-03-14T14:04:24;22.50;99.90
37380;DHT22;23252;-33.992;18.480;2023-03-14T14:06:54;22.50;99.90
37380;DHT22;23252;-33.992;18.480;2023-03-14T14:09:25;22.50;99.90
37380;DHT22;23252;-33.992;18.480;2023-03-14T14:14:26;22.40;99.90
37380;DHT22;23252;-33.992;18.480;2023-03-14T14:16:54;22.40;99.90
37380;DHT22;23252;-33.992;18.480;2023-03-14T14:19:22;22.30;99.90
37380;DHT22;23252;-33.992;18.480;2023-03-14T14:21:50;22.30;99.90
37380;DHT22;23252;-33.992;18.480;2023-03-14T14:24:17;22.20;99.90
37380;DHT22;23252;-33.992;18.480;2023-03-14T14:26:54;22.20;99.90
37380;DHT22;23252;-33.992;18.480;2023-03-14T14:29:32;22.20;99.90
37380;DHT22;23252;-33.992;18.480;2023-03-14T14:38:02;22.10;99.90
37380;DHT22;23252;-33.992;18.480;2023-03-14T14:40:17;22.00;99.90
37380;DHT22;23252;-33.992;18.480;2023-03-14T14:42:45;22.00;99.90
37380;DHT22;23252;-33.992;18.480;2023-03-14T14:45:19;21.90;99.90
37380;DHT22;23252;-33.992;18.480;2023-03-14T14:48:17;21.80;99.90
37380;DHT22;23252;-33.992;18.480;2023-03-14T14:53:36;21.70;99.90
37380;DHT22;23252;-33.992;18.480;2023-03-14T14:56:16;21.80;99.90
37380;DHT22;23252;-33.992;18.480;2023-03-14T14:58:45;21.70;99.90
37380;DHT22;23252;-33.992;18.480;2023-03-14T15:01:20;21.60;99.90
37380;DHT22;23252;-33.992;18.480;2023-03-14T15:03:50;21.60;99.90
37380;DHT22;23252;-33.992;18.480;2023-03-14T15:06:18;21.60;99.90
37380;DHT22;23252;-33.992;18.480;2023-03-14T15:08:46;21.50;99.90
37380;DHT22;23252;-33.992;18.480;2023-03-14T15:11:22;21.50;99.90
37380;DHT22;23252;-33.992;18.480;2023-03-14T15:13:50;21.50;99.90
37380;DHT22;23252;-33.992;18.480;2023-03-14T15:16:19;21.50;99.90
37380;DHT22;23252;-33.992;18.480;2023-03-14T15:18:52;21.50;99.90
37380;DHT22;23252;-33.992;18.480;2023-03-14T15:21:21;21.60;99.90
37380;DHT22;23252;-33.992;18.480;2023-03-14T15:23:48;21.70;99.90
37380;DHT22;23252;-33.992;18.480;2023-03-14T15:26:20;21.70;99.90
37380;DHT22;23252;-33.992;18.480;2023-03-14T15:28:47;21.70;99.90
37380;DHT22;23252;-33.992;18.480;2023-03-14T15:31:16;21.80;99.90
37380;DHT22;23252;-33.992;18.480;2023-03-14T15:33:44;21.80;99.90
37380;DHT22;23252;-33.992;18.480;2023-03-14T15:36:29;21.80;99.90
37380;DHT22;23252;-33.992;18.480;2023-03-14T15:38:59;21.70;99.90
37380;DHT22;23252;-33.992;18.480;2023-03-14T15:41:27;21.70;99.90
37380;DHT22;23252;-33.992;18.480;2023-03-14T15:43:53;21.80;99.90
37380;DHT22;23252;-33.992;18.480;2023-03-14T15:46:20;21.80;99.90
37380;DHT22;23252;-33.992;18.480;2023-03-14T15:48:49;21.70;99.90
37380;DHT22;23252;-33.992;18.480;2023-03-14T15:51:16;21.70;99.90
37380;DHT22;23252;-33.992;18.480;2023-03-14T15:53:43;21.70;99.90
37380;DHT22;23252;-33.992;18.480;2023-03-14T15:56:17;21.60;99.90
37380;DHT22;23252;-33.992;18.480;2023-03-14T15:58:44;21.60;99.90
37380;DHT22;23252;-33.992;18.480;2023-03-14T16:01:13;21.60;99.90
37380;DHT22;23252;-33.992;18.480;2023-03-14T16:03:44;21.50;99.90
37380;DHT22;23252;-33.992;18.480;2023-03-14T16:06:11;21.50;99.90
37380;DHT22;23252;-33.992;18.480;2023-03-14T16:08:38;21.40;99.90
37380;DHT22;23252;-33.992;18.480;2023-03-14T16:11:04;21.40;99.90
37380;DHT22;23252;-33.992;18.480;2023-03-14T16:13:31;21.40;99.90
37380;DHT22;23252;-33.992;18.480;2023-03-14T16:16:00;21.30;99.90
37380;DHT22;23252;-33.992;18.480;2023-03-14T16:18:32;21.30;99.90
37380;DHT22;23252;-33.992;18.480;2023-03-14T16:21:05;21.30;99.90
37380;DHT22;23252;-33.992;18.480;2023-03-14T16:23:33;21.30;99.90
37380;DHT22;23252;-33.992;18.480;2023-03-14T16:26:04;21.20;99.90
37380;DHT22;23252;-33.992;18.480;2023-03-14T16:28:31;21.20;99.90
37380;DHT22;23252;-33.992;18.480;2023-03-14T16:31:11;21.10;99.90
37380;DHT22;23252;-33.992;18.480;2023-03-14T16:33:38;21.00;99.90
37380;DHT22;23252;-33.992;18.480;2023-03-14T16:36:07;21.00;99.90
37380;DHT22;23252;-33.992;18.480;2023-03-14T16:38:35;21.00;99.90
37380;DHT22;23252;-33.992;18.480;2023-03-14T16:41:14;21.00;99.90
37380;DHT22;23252;-33.992;18.480;2023-03-14T16:43:42;20.90;99.90
37380;DHT22;23252;-33.992;18.480;2023-03-14T16:46:13;20.90;99.90
37380;DHT22;23252;-33.992;18.480;2023-03-14T16:48:41;20.90;99.90
37380;DHT22;23252;-33.992;18.480;2023-03-14T16:51:08;20.90;99.90
37380;DHT22;23252;-33.992;18.480;2023-03-14T16:53:35;20.90;99.90
37380;DHT22;23252;-33.992;18.480;2023-03-14T16:56:24;20.90;99.90
37380;DHT22;23252;-33.992;18.480;2023-03-14T16:58:51;20.90;99.90
37380;DHT22;23252;-33.992;18.480;2023-03-14T17:01:18;20.80;99.90
37380;DHT22;23252;-33.992;18.480;2023-03-14T17:03:46;20.80;99.90
37380;DHT22;23252;-33.992;18.480;2023-03-14T17:06:16;20.70;99.90
37380;DHT22;23252;-33.992;18.480;2023-03-14T17:08:43;20.70;99.90
37380;DHT22;23252;-33.992;18.480;2023-03-14T17:11:10;20.60;99.90
37380;DHT22;23252;-33.992;18.480;2023-03-14T17:13:37;20.50;99.90
37380;DHT22;23252;-33.992;18.480;2023-03-14T17:16:04;20.50;99.90
37380;DHT22;23252;-33.992;18.480;2023-03-14T17:18:31;20.50;99.90
37380;DHT22;23252;-33.992;18.480;2023-03-14T17:20:58;20.50;99.90
37380;DHT22;23252;-33.992;18.480;2023-03-14T17:23:26;20.40;99.90
37380;DHT22;23252;-33.992;18.480;2023-03-14T17:25:53;20.40;99.90
37380;DHT22;23252;-33.992;18.480;2023-03-14T17:28:22;20.30;99.90
37380;DHT22;23252;-33.992;18.480;2023-03-14T17:30:49;20.30;99.90
37380;DHT22;23252;-33.992;18.480;2023-03-14T17:33:16;20.20;99.90
37380;DHT22;23252;-33.992;18.480;2023-03-14T17:35:43;20.20;99.90
37380;DHT22;23252;-33.992;18.480;2023-03-14T17:38:09;20.10;99.90
37380;DHT22;23252;-33.992;18.480;2023-03-14T17:40:36;20.10;99.90
37380;DHT22;23252;-33.992;18.480;2023-03-14T17:43:03;20.10;99.90
37380;DHT22;23252;-33.992;18.480;2023-03-14T17:45:29;20.10;99.90
37380;DHT22;23252;-33.992;18.480;2023-03-14T17:47:56;20.20;99.90
37380;DHT22;23252;-33.992;18.480;2023-03-14T17:50:22;20.20;99.90
37380;DHT22;23252;-33.992;18.480;2023-03-14T17:52:49;20.20;99.90
37380;DHT22;23252;-33.992;18.480;2023-03-14T17:55:15;20.20;99.90
37380;DHT22;23252;-33.992;18.480;2023-03-14T17:57:42;20.20;99.90
37380;DHT22;23252;-33.992;18.480;2023-03-14T18:00:13;20.20;99.90
37380;DHT22;23252;-33.992;18.480;2023-03-14T18:02:40;20.30;99.90
37380;DHT22;23252;-33.992;18.480;2023-03-14T18:05:06;20.20;99.90
37380;DHT22;23252;-33.992;18.480;2023-03-14T18:07:36;20.20;99.90
37380;DHT22;23252;-33.992;18.480;2023-03-14T18:10:05;20.20;99.90
37380;DHT22;23252;-33.992;18.480;2023-03-14T18:12:32;20.20;99.90
37380;DHT22;23252;-33.992;18.480;2023-03-14T18:14:58;20.20;99.90
37380;DHT22;23252;-33.992;18.480;2023-03-14T18:17:26;20.30;99.90
37380;DHT22;23252;-33.992;18.480;2023-03-14T18:19:52;20.30;99.90
37380;DHT22;23252;-33.992;18.480;2023-03-14T18:22:20;20.30;99.90
37380;DHT22;23252;-33.992;18.480;2023-03-14T18:24:47;20.30;99.90
37380;DHT22;23252;-33.992;18.480;2023-03-14T18:27:13;20.30;99.90
37380;DHT22;23252;-33.992;18.480;2023-03-14T18:29:41;20.30;99.90